Time;durP1;ratioP1;P1;durP2;ratioP2;P2;SDS_P1;SDS_P2;PMS_P1;PMS_P2;Temp;Humidity;BMP_temperature;BMP_pressure;BME280_temperature;BME280_humidity;BME280_pressure;Samples;Min_cycle;Max_cycle;Signal;HPM_P1;HPM_P2
2022/06/10 00:00:47;;;;;;;8.35;3.78;;;12.30;99.90;;;;;;4994633;28;20055;-69
2022/06/10 00:03:14;;;;;;;9.63;3.92;;;12.30;99.90;;;;;;5043042;28;20042;-69
2022/06/10 00:05:43;;;;;;;10.45;3.97;;;12.30;99.90;;;;;;5006734;28;20053;-69
2022/06/10 00:08:13;;;;;;;8.68;4.47;;;12.30;99.90;;;;;;4993207;28;20057;-69
2022/06/10 00:10:40;;;;;;;8.35;3.95;;;12.30;99.90;;;;;;5006832;28;20579;-69
2022/06/10 00:13:06;;;;;;;10.07;4.10;;;12.30;99.90;;;;;;4989249;28;20550;-69
2022/06/10 00:15:32;;;;;;;9.55;4.40;;;12.20;99.90;;;;;;5042497;28;20048;-70
2022/06/10 00:17:59;;;;;;;11.93;4.55;;;12.20;99.90;;;;;;5009228;28;20049;-69
2022/06/10 00:20:28;;;;;;;11.10;3.80;;;12.20;99.90;;;;;;5006228;28;20041;-69
2022/06/10 00:22:58;;;;;;;9.65;3.92;;;12.20;99.90;;;;;;4986470;28;20512;-69
2022/06/10 00:25:24;;;;;;;10.00;4.40;;;12.10;99.90;;;;;;5041013;28;20080;-69
2022/06/10 00:27:50;;;;;;;8.38;4.60;;;12.10;99.90;;;;;;5009569;28;20030;-70
2022/06/10 00:30:19;;;;;;;10.02;4.45;;;12.10;99.90;;;;;;5006919;28;20057;-69
2022/06/10 00:32:45;;;;;;;10.95;5.72;;;12.10;99.90;;;;;;5029601;28;20042;-69
2022/06/10 00:35:11;;;;;;;8.38;4.22;;;12.10;99.90;;;;;;4995724;28;20060;-69
2022/06/10 00:37:37;;;;;;;10.75;5.07;;;12.00;99.90;;;;;;5008014;28;20085;-69
2022/06/10 00:40:05;;;;;;;8.57;4.50;;;12.00;99.90;;;;;;5015604;28;20548;-70
2022/06/10 00:42:35;;;;;;;9.18;4.30;;;12.00;99.90;;;;;;4996040;28;20038;-70
2022/06/10 00:45:03;;;;;;;10.57;4.70;;;12.00;99.90;;;;;;5042197;28;20050;-70
2022/06/10 00:47:41;;;;;;;6.35;3.88;;;12.00;99.90;;;;;;5010431;28;20041;-70
2022/06/10 00:50:10;;;;;;;9.50;4.70;;;12.00;99.90;;;;;;5050475;28;20083;-70
2022/06/10 00:52:40;;;;;;;10.27;4.85;;;12.00;99.90;;;;;;5009703;28;20038;-70
2022/06/10 00:55:08;;;;;;;8.80;4.80;;;11.90;99.90;;;;;;5009156;28;20049;-70
2022/06/10 00:57:39;;;;;;;8.80;4.63;;;11.90;99.90;;;;;;4989550;28;20184;-70
2022/06/10 01:00:14;;;;;;;9.25;5.03;;;11.80;99.90;;;;;;5009016;28;20046;-70
2022/06/10 01:02:40;;;;;;;9.80;4.78;;;11.80;99.90;;;;;;5004348;28;20045;-70
2022/06/10 01:05:10;;;;;;;10.65;4.90;;;11.80;99.90;;;;;;5006778;28;20050;-70
2022/06/10 01:07:42;;;;;;;;;;;11.80;99.90;;;;;;4991954;28;20107;-70
2022/06/10 01:10:12;;;;;;;11.30;5.15;;;11.70;99.90;;;;;;5031895;28;19951;-70
2022/06/10 01:13:17;;;;;;;7.93;3.78;;;11.60;99.90;;;;;;5005987;28;20054;-70
2022/06/10 01:16:10;;;;;;;10.13;4.68;;;11.70;99.90;;;;;;4981014;28;20065;-69
2022/06/10 01:19:00;;;;;;;11.32;4.60;;;11.60;99.90;;;;;;5031638;28;20061;-70
2022/06/10 01:21:49;;;;;;;9.40;4.53;;;11.60;99.90;;;;;;5041066;28;20056;-70
2022/06/10 01:24:21;;;;;;;10.45;4.47;;;11.60;99.90;;;;;;5020148;28;20416;-70
2022/06/10 01:30:16;;;;;;;11.02;5.38;;;11.60;99.90;;;;;;5041669;28;20054;-70
2022/06/10 01:33:00;;;;;;;10.40;4.60;;;11.60;99.90;;;;;;5021180;28;20045;-70
2022/06/10 01:35:45;;;;;;;12.88;4.80;;;11.60;99.90;;;;;;5006206;28;20061;-70
2022/06/10 01:38:38;;;;;;;10.00;4.57;;;11.60;99.90;;;;;;5005410;28;20050;-70
2022/06/10 01:41:33;;;;;;;11.20;4.80;;;11.60;99.90;;;;;;5045734;28;20045;-70
2022/06/10 01:44:16;;;;;;;8.38;4.55;;;11.60;99.90;;;;;;5019443;28;20052;-70
2022/06/10 01:47:22;;;;;;;14.38;5.60;;;11.50;99.90;;;;;;5011466;28;20057;-70
2022/06/10 01:50:11;;;;;;;10.98;4.88;;;11.50;99.90;;;;;;4983895;28;20069;-70
2022/06/10 01:52:41;;;;;;;7.43;4.20;;;11.40;99.90;;;;;;5010486;28;20097;-70
2022/06/10 01:55:07;;;;;;;9.48;4.22;;;11.50;99.90;;;;;;5007683;28;20045;-69
2022/06/10 01:57:53;;;;;;;10.68;5.00;;;11.40;99.90;;;;;;5005729;28;20658;-70
2022/06/10 02:00:21;;;;;;;10.93;5.32;;;11.40;99.90;;;;;;5039716;28;20045;-70
2022/06/10 02:03:15;;;;;;;12.10;4.90;;;11.40;99.90;;;;;;5017731;28;20056;-70
2022/06/10 02:05:48;;;;;;;8.13;4.43;;;11.40;99.90;;;;;;4999188;28;20184;-70
2022/06/10 02:08:39;;;;;;;7.45;4.70;;;11.40;99.90;;;;;;5028383;28;20042;-70
2022/06/10 02:11:14;;;;;;;10.00;4.35;;;11.40;99.90;;;;;;5010108;28;20445;-69
2022/06/10 02:13:59;;;;;;;11.00;4.40;;;11.30;99.90;;;;;;4991092;28;20046;-70
2022/06/10 02:16:28;;;;;;;9.60;4.85;;;11.30;99.90;;;;;;5022693;28;20041;-70
2022/06/10 02:19:08;;;;;;;9.00;4.70;;;11.30;99.90;;;;;;5010610;28;20117;-70
2022/06/10 02:21:45;;;;;;;7.55;4.22;;;11.30;99.90;;;;;;5008731;28;20054;-69
2022/06/10 02:24:23;;;;;;;9.60;4.43;;;11.30;99.90;;;;;;5004047;28;20120;-70
2022/06/10 02:26:52;;;;;;;10.45;4.90;;;11.30;99.90;;;;;;5014331;28;20053;-70
2022/06/10 02:29:38;;;;;;;10.45;4.28;;;11.30;99.90;;;;;;5012124;28;20049;-69
2022/06/10 02:32:04;;;;;;;12.68;5.22;;;11.30;99.90;;;;;;5010009;28;21107;-70
2022/06/10 02:34:31;;;;;;;9.07;4.22;;;11.30;99.90;;;;;;4998899;28;20056;-70
2022/06/10 02:37:40;;;;;;;10.43;4.57;;;11.30;99.90;;;;;;5008467;28;20041;-69
2022/06/10 02:40:12;;;;;;;11.95;5.10;;;11.30;99.90;;;;;;5006243;28;20046;-70
2022/06/10 02:42:46;;;;;;;10.98;5.30;;;11.20;99.90;;;;;;5002555;28;20084;-70
2022/06/10 02:45:40;;;;;;;8.32;5.00;;;11.20;99.90;;;;;;5004558;28;20042;-70
2022/06/10 02:48:26;;;;;;;10.13;5.50;;;11.10;99.90;;;;;;5005749;28;20106;-70
2022/06/10 02:50:52;;;;;;;9.50;4.57;;;11.10;99.90;;;;;;5015785;28;20120;-70
2022/06/10 02:53:18;;;;;;;9.95;4.85;;;11.10;99.90;;;;;;5027602;28;20141;-69
2022/06/10 02:55:47;;;;;;;8.15;4.55;;;11.10;99.90;;;;;;5014872;28;20453;-70
2022/06/10 03:01:49;;;;;;;9.85;4.30;;;11.10;99.90;;;;;;5051319;28;20057;-69
2022/06/10 03:04:34;;;;;;;10.20;4.68;;;11.10;99.90;;;;;;5038600;28;20038;-70
2022/06/10 03:07:09;;;;;;;10.20;4.65;;;11.00;99.90;;;;;;5014594;28;20100;-70
2022/06/10 03:10:08;;;;;;;10.35;5.45;;;11.00;99.90;;;;;;5008698;28;20042;-69
2022/06/10 03:12:38;;;;;;;11.07;5.35;;;10.90;99.90;;;;;;4995218;28;20041;-70
2022/06/10 03:15:23;;;;;;;;;;;11.00;99.90;;;;;;5012992;28;20041;-70
2022/06/10 03:18:37;;;;;;;12.40;4.90;;;10.90;99.90;;;;;;5009556;28;19922;-70
2022/06/10 03:21:17;;;;;;;8.43;5.22;;;10.80;99.90;;;;;;4988278;28;20096;-70
2022/06/10 03:24:07;;;;;;;9.45;4.93;;;10.80;99.90;;;;;;4992067;28;20055;-69
2022/06/10 03:26:42;;;;;;;10.90;4.77;;;10.80;99.90;;;;;;5038504;28;20051;-69
2022/06/10 03:29:40;;;;;;;9.73;4.80;;;10.70;99.90;;;;;;4992353;28;20050;-69
2022/06/10 03:32:21;;;;;;;11.60;5.20;;;10.70;99.90;;;;;;5008045;28;20054;-70
2022/06/10 03:34:53;;;;;;;8.52;4.72;;;10.70;99.90;;;;;;4992245;28;20045;-70
2022/06/10 03:37:22;;;;;;;8.50;5.00;;;10.70;99.90;;;;;;5039521;28;20065;-69
2022/06/10 03:39:56;;;;;;;10.82;5.13;;;10.70;99.90;;;;;;5000062;28;20041;-69
2022/06/10 03:42:25;;;;;;;13.18;4.80;;;10.70;99.90;;;;;;5044289;28;20102;-70
2022/06/10 03:44:54;;;;;;;11.43;5.00;;;10.70;99.90;;;;;;5002019;28;20192;-70
2022/06/10 03:47:30;;;;;;;8.80;5.05;;;10.70;99.90;;;;;;5014526;28;20037;-69
2022/06/10 03:50:09;;;;;;;10.18;5.47;;;10.70;99.90;;;;;;5006165;28;20052;-69
2022/06/10 03:52:38;;;;;;;11.77;5.10;;;10.70;99.90;;;;;;5015700;28;20493;-70
2022/06/10 03:55:05;;;;;;;10.43;5.88;;;10.80;99.90;;;;;;4992596;28;20564;-69
2022/06/10 03:57:31;;;;;;;9.48;4.90;;;10.80;99.90;;;;;;5025851;28;20033;-70
2022/06/10 03:59:57;;;;;;;12.45;5.50;;;10.90;99.90;;;;;;5021200;28;20045;-71
2022/06/10 04:02:23;;;;;;;12.80;5.88;;;10.90;99.90;;;;;;4984569;28;20073;-69
2022/06/10 04:04:49;;;;;;;8.30;5.20;;;11.00;99.90;;;;;;4994378;28;20081;-69
2022/06/10 04:07:17;;;;;;;12.95;5.50;;;11.00;99.90;;;;;;4990778;28;20089;-70
2022/06/10 04:09:47;;;;;;;9.85;5.07;;;11.10;99.90;;;;;;5009861;28;20053;-69
2022/06/10 04:12:16;;;;;;;9.70;5.22;;;11.10;99.90;;;;;;5011666;28;20047;-69
2022/06/10 04:14:42;;;;;;;13.18;6.20;;;11.20;99.90;;;;;;4999724;28;20092;-69
2022/06/10 04:17:10;;;;;;;12.18;5.72;;;11.20;99.90;;;;;;5026464;28;20046;-69
2022/06/10 04:19:35;;;;;;;11.07;5.65;;;11.30;99.90;;;;;;5022375;28;20092;-70
2022/06/10 04:22:02;;;;;;;9.50;4.68;;;11.30;99.90;;;;;;4989915;28;20043;-69
2022/06/10 04:24:27;;;;;;;13.30;5.90;;;11.30;99.90;;;;;;5034542;28;20073;-69
2022/06/10 04:26:53;;;;;;;10.15;5.90;;;11.40;99.90;;;;;;5011948;28;20045;-69
2022/06/10 04:29:19;;;;;;;11.65;5.68;;;11.50;99.90;;;;;;5008692;28;20040;-69
2022/06/10 04:31:45;;;;;;;12.60;5.50;;;11.50;99.90;;;;;;5035961;28;20046;-70
2022/06/10 04:34:11;;;;;;;11.95;5.57;;;11.50;99.90;;;;;;5020317;28;21020;-70
2022/06/10 04:36:38;;;;;;;8.65;5.13;;;11.60;99.90;;;;;;5002496;28;20045;-69
2022/06/10 04:39:03;;;;;;;14.23;5.82;;;11.60;99.90;;;;;;4995600;28;20057;-70
2022/06/10 04:41:29;;;;;;;12.00;5.53;;;11.70;99.90;;;;;;5039997;28;20128;-69
2022/06/10 04:43:55;;;;;;;10.18;5.25;;;11.80;99.90;;;;;;5016282;28;20033;-69
2022/06/10 04:46:34;;;;;;;12.10;5.65;;;11.80;99.90;;;;;;4999925;28;20140;-70
2022/06/10 04:49:00;;;;;;;12.73;5.45;;;11.90;99.90;;;;;;5032736;28;20053;-69
2022/06/10 04:51:25;;;;;;;12.45;5.88;;;12.00;99.90;;;;;;5025505;28;20460;-70
2022/06/10 04:53:51;;;;;;;12.13;5.30;;;12.10;99.90;;;;;;5011183;28;20038;-69
2022/06/10 04:56:17;;;;;;;14.07;6.72;;;12.20;99.90;;;;;;4969544;28;20064;-70
2022/06/10 04:58:44;;;;;;;14.77;5.95;;;12.30;99.90;;;;;;5003278;28;20057;-70
2022/06/10 05:01:10;;;;;;;12.85;5.95;;;12.30;99.90;;;;;;5015285;28;20054;-69
2022/06/10 05:03:36;;;;;;;14.05;5.88;;;12.40;99.90;;;;;;5003292;28;20046;-70
2022/06/10 05:06:03;;;;;;;13.02;5.45;;;12.50;99.90;;;;;;5022353;28;20042;-70
2022/06/10 05:08:28;;;;;;;10.98;5.18;;;12.60;99.90;;;;;;4991377;28;20077;-71
2022/06/10 05:10:54;;;;;;;11.80;6.03;;;12.70;99.90;;;;;;4998798;28;20473;-71
2022/06/10 05:13:20;;;;;;;12.82;5.97;;;12.90;99.90;;;;;;5031874;28;20050;-70
2022/06/10 05:15:48;;;;;;;12.52;5.38;;;13.00;99.90;;;;;;4971818;28;20103;-69
2022/06/10 05:18:23;;;;;;;11.38;4.95;;;13.10;99.90;;;;;;5013278;28;20057;-70
2022/06/10 05:20:49;;;;;;;10.90;5.63;;;13.30;99.90;;;;;;5036115;28;20145;-70
2022/06/10 05:23:18;;;;;;;13.40;6.47;;;13.50;99.90;;;;;;5003878;28;20046;-70
2022/06/10 05:25:45;;;;;;;15.70;6.18;;;13.70;99.90;;;;;;5022752;28;20038;-72
2022/06/10 05:28:12;;;;;;;14.10;5.82;;;13.80;99.90;;;;;;5025464;28;20045;-72
2022/06/10 05:30:39;;;;;;;14.40;5.65;;;13.90;99.90;;;;;;5006963;28;20045;-71
2022/06/10 05:33:06;;;;;;;16.05;5.90;;;14.00;99.90;;;;;;4987735;28;20046;-72
2022/06/10 05:35:32;;;;;;;10.43;5.40;;;14.10;99.90;;;;;;5016715;28;20054;-72
2022/06/10 05:37:59;;;;;;;11.48;5.10;;;14.10;99.90;;;;;;4998848;28;20058;-72
2022/06/10 05:40:26;;;;;;;12.02;5.32;;;14.20;99.90;;;;;;4992218;28;20049;-72
2022/06/10 05:42:52;;;;;;;9.85;5.28;;;14.20;99.90;;;;;;5011276;28;20042;-71
2022/06/10 05:45:20;;;;;;;11.50;4.97;;;14.30;99.90;;;;;;5001607;28;20516;-72
2022/06/10 05:47:49;;;;;;;13.43;5.18;;;14.30;99.90;;;;;;5004742;28;20124;-72
2022/06/10 05:50:19;;;;;;;13.23;5.72;;;14.30;99.90;;;;;;5005813;28;20038;-69
2022/06/10 05:52:46;;;;;;;;;;;14.30;99.90;;;;;;5005667;28;20484;-70
2022/06/10 05:55:12;;;;;;;10.52;5.40;;;14.30;99.90;;;;;;5021541;28;20386;-70
2022/06/10 05:57:39;;;;;;;10.25;5.40;;;14.30;99.90;;;;;;4975657;28;20052;-70
2022/06/10 06:00:08;;;;;;;14.43;5.68;;;14.30;99.90;;;;;;4975735;28;20046;-70
2022/06/10 06:02:33;;;;;;;14.32;5.78;;;14.30;99.90;;;;;;5004716;28;20052;-70
2022/06/10 06:04:59;;;;;;;11.55;5.28;;;14.30;99.90;;;;;;5035556;28;20033;-69
2022/06/10 06:07:27;;;;;;;9.82;5.50;;;14.40;99.90;;;;;;5006598;28;20053;-70
2022/06/10 06:10:17;;;;;;;12.95;6.13;;;14.40;99.90;;;;;;5002681;28;20042;-70
2022/06/10 06:12:47;;;;;;;13.45;5.85;;;14.40;99.90;;;;;;5005180;28;20064;-70
2022/06/10 06:15:16;;;;;;;13.60;6.38;;;14.40;99.90;;;;;;5006704;28;20045;-70
2022/06/10 06:17:42;;;;;;;11.10;5.65;;;14.50;99.90;;;;;;5024013;28;20046;-69
2022/06/10 06:20:12;;;;;;;7.90;5.18;;;14.50;99.90;;;;;;5029571;28;20547;-70
2022/06/10 06:22:38;;;;;;;11.13;5.40;;;14.50;99.90;;;;;;5007226;28;20145;-70
2022/06/10 06:25:04;;;;;;;13.20;5.85;;;14.50;99.90;;;;;;4995330;28;20109;-70
2022/06/10 06:27:30;;;;;;;14.85;6.15;;;14.50;99.90;;;;;;4990462;28;20121;-69
2022/06/10 06:29:57;;;;;;;12.68;6.15;;;14.60;99.90;;;;;;5019283;28;20130;-70
2022/06/10 06:32:23;;;;;;;12.40;5.78;;;14.60;99.90;;;;;;5004749;28;20056;-71
2022/06/10 06:34:49;;;;;;;16.08;6.40;;;14.60;99.90;;;;;;5014798;28;20535;-70
2022/06/10 06:37:16;;;;;;;13.07;5.90;;;14.70;99.90;;;;;;5008198;28;20073;-70
2022/06/10 06:39:42;;;;;;;11.38;5.60;;;14.70;99.90;;;;;;5003069;28;20037;-70
2022/06/10 06:42:10;;;;;;;13.63;6.05;;;14.80;99.90;;;;;;5008526;28;20046;-69
2022/06/10 06:44:40;;;;;;;12.35;6.50;;;14.90;99.90;;;;;;4997659;28;20516;-70
2022/06/10 06:47:10;;;;;;;14.27;6.30;;;15.10;99.90;;;;;;5024002;28;20049;-70
2022/06/10 06:49:35;;;;;;;13.23;6.10;;;15.10;99.90;;;;;;5022925;28;20034;-71
2022/06/10 06:52:02;;;;;;;13.30;6.20;;;15.20;99.90;;;;;;4984092;28;20054;-71
2022/06/10 06:54:28;;;;;;;16.92;7.53;;;15.30;99.90;;;;;;4981629;28;20039;-70
2022/06/10 06:56:54;;;;;;;15.30;7.75;;;15.30;99.90;;;;;;5001459;28;20050;-70
2022/06/10 06:59:20;;;;;;;14.30;8.20;;;15.30;99.90;;;;;;5017395;28;20367;-70
2022/06/10 07:01:46;;;;;;;15.25;8.18;;;15.30;99.90;;;;;;5015480;28;20034;-70
2022/06/10 07:04:11;;;;;;;15.15;8.02;;;15.30;99.90;;;;;;5004515;28;20664;-70
2022/06/10 07:06:43;;;;;;;15.57;8.02;;;15.40;99.90;;;;;;4998445;28;21270;-70
2022/06/10 07:09:09;;;;;;;14.30;7.10;;;15.40;99.90;;;;;;4987875;28;20049;-70
2022/06/10 07:11:38;;;;;;;12.63;7.78;;;15.40;99.90;;;;;;5012362;28;20041;-70
2022/06/10 07:14:04;;;;;;;13.90;7.38;;;15.50;99.90;;;;;;5022901;28;20224;-70
2022/06/10 07:16:30;;;;;;;13.75;7.95;;;15.50;99.90;;;;;;5015973;28;20041;-70
2022/06/10 07:18:56;;;;;;;13.77;7.82;;;15.60;99.90;;;;;;5012498;28;20047;-71
2022/06/10 07:21:22;;;;;;;14.40;8.73;;;15.60;99.90;;;;;;5003564;28;20064;-71
2022/06/10 07:23:48;;;;;;;15.07;8.27;;;15.70;99.90;;;;;;5002573;28;20057;-71
2022/06/10 07:26:15;;;;;;;12.38;7.88;;;15.70;99.90;;;;;;4997148;28;20077;-71
2022/06/10 07:28:41;;;;;;;15.13;7.40;;;15.70;99.90;;;;;;4999793;28;20135;-70
2022/06/10 07:31:07;;;;;;;10.32;6.93;;;15.70;99.90;;;;;;4977757;28;20049;-70
2022/06/10 07:33:35;;;;;;;13.68;7.93;;;15.70;99.90;;;;;;5009994;28;20405;-71
2022/06/10 07:36:04;;;;;;;13.80;7.57;;;15.70;99.90;;;;;;5007439;28;20049;-70
2022/06/10 07:38:31;;;;;;;13.53;7.67;;;15.70;99.90;;;;;;5028758;28;20034;-71
2022/06/10 07:43:47;;;;;;;14.70;7.07;;;15.80;99.90;;;;;;5035274;28;20096;-70
2022/06/10 07:46:16;;;;;;;11.30;7.07;;;15.90;99.90;;;;;;5008228;28;20108;-71
2022/06/10 07:48:46;;;;;;;13.00;7.25;;;16.00;99.90;;;;;;5001609;28;20046;-71
2022/06/10 07:51:12;;;;;;;15.93;7.63;;;16.10;99.90;;;;;;4989364;28;20042;-71
2022/06/10 07:53:39;;;;;;;12.57;6.97;;;16.20;99.90;;;;;;5002310;28;20107;-70
2022/06/10 07:56:10;;;;;;;11.60;7.50;;;16.30;99.90;;;;;;4993559;28;20054;-71
2022/06/10 07:58:36;;;;;;;13.77;7.50;;;16.30;99.90;;;;;;4999038;28;20068;-72
2022/06/10 08:01:02;;;;;;;16.35;8.20;;;16.30;99.90;;;;;;4999260;28;20073;-70
2022/06/10 08:03:28;;;;;;;12.40;7.53;;;16.30;99.90;;;;;;5011410;28;20159;-71
2022/06/10 08:05:54;;;;;;;13.55;7.07;;;16.40;99.90;;;;;;5021083;28;20046;-71
2022/06/10 08:08:21;;;;;;;14.77;7.55;;;16.40;99.90;;;;;;4993901;28;20064;-71
2022/06/10 08:10:47;;;;;;;14.20;7.20;;;16.40;99.90;;;;;;5006972;28;20132;-71
2022/06/10 08:13:16;;;;;;;11.95;7.15;;;16.40;99.90;;;;;;4991382;28;20432;-70
2022/06/10 08:15:47;;;;;;;14.83;7.57;;;16.40;99.90;;;;;;5003995;28;20124;-71
2022/06/10 08:18:14;;;;;;;;;;;16.40;99.90;;;;;;5000263;28;20100;-73
2022/06/10 08:23:28;;;;;;;13.25;7.70;;;16.50;99.90;;;;;;5004747;28;20413;-71
2022/06/10 08:25:55;;;;;;;12.55;7.80;;;16.60;99.90;;;;;;5002013;28;20041;-70
2022/06/10 08:28:23;;;;;;;16.02;7.00;;;16.60;99.90;;;;;;4989596;28;20046;-70
2022/06/10 08:30:48;;;;;;;9.30;6.35;;;16.60;99.90;;;;;;4980676;28;20052;-71
2022/06/10 08:33:15;;;;;;;16.17;7.53;;;16.70;99.90;;;;;;5017776;28;20046;-71
2022/06/10 08:35:41;;;;;;;13.85;8.07;;;16.70;99.90;;;;;;5011392;28;20042;-71
2022/06/10 08:38:10;;;;;;;16.20;6.78;;;16.70;99.90;;;;;;5007869;28;20099;-71
2022/06/10 08:40:39;;;;;;;12.45;6.20;;;16.80;99.90;;;;;;4986151;28;20549;-70
2022/06/10 08:43:14;;;;;;;9.95;6.03;;;16.90;99.90;;;;;;5009103;28;20061;-71
2022/06/10 08:45:51;;;;;;;12.85;6.15;;;16.90;99.90;;;;;;5031475;28;20042;-70
2022/06/10 08:48:34;;;;;;;16.00;5.72;;;17.00;99.90;;;;;;4999408;28;20050;-70
2022/06/10 08:51:09;;;;;;;12.20;5.57;;;17.10;99.90;;;;;;4996071;28;20608;-71
2022/06/10 08:53:44;;;;;;;11.93;6.22;;;17.20;99.90;;;;;;5034950;28;20505;-71
2022/06/10 08:56:40;;;;;;;11.85;5.38;;;17.20;99.90;;;;;;4985960;28;20496;-71
2022/06/10 08:59:09;;;;;;;13.05;5.53;;;17.20;99.90;;;;;;4998787;28;20061;-70
2022/06/10 09:02:04;;;;;;;13.27;5.50;;;17.20;99.90;;;;;;5029965;28;20054;-71
2022/06/10 09:04:52;;;;;;;11.55;4.75;;;17.30;99.90;;;;;;5034751;28;20037;-70
2022/06/10 09:07:32;;;;;;;12.30;4.93;;;17.30;99.90;;;;;;4982153;28;20587;-71
2022/06/10 09:09:59;;;;;;;10.77;4.75;;;17.30;99.90;;;;;;5033691;28;20398;-71
2022/06/10 09:12:53;;;;;;;9.30;4.65;;;17.30;99.90;;;;;;4996744;28;20058;-70
2022/06/10 09:15:21;;;;;;;13.65;5.28;;;17.30;99.90;;;;;;5035816;28;20488;-71
2022/06/10 09:17:53;;;;;;;11.65;5.20;;;17.30;99.90;;;;;;4984258;28;20103;-71
2022/06/10 09:20:50;;;;;;;11.77;6.03;;;17.30;99.90;;;;;;5010555;28;20042;-70
2022/06/10 09:23:25;;;;;;;14.75;6.00;;;17.30;99.90;;;;;;5028964;28;20104;-70
2022/06/10 09:25:56;;;;;;;9.65;5.53;;;17.30;99.90;;;;;;5001587;28;20477;-71
2022/06/10 09:28:23;;;;;;;9.95;5.10;;;17.30;99.90;;;;;;5002971;28;20103;-71
2022/06/10 09:30:58;;;;;;;13.60;5.93;;;17.40;99.90;;;;;;4996994;28;20038;-70
2022/06/10 09:33:35;;;;;;;12.10;5.97;;;17.50;99.90;;;;;;4998084;28;20108;-71
2022/06/10 09:36:09;;;;;;;14.10;5.90;;;17.50;99.90;;;;;;5016766;28;20452;-71
2022/06/10 09:39:01;;;;;;;10.70;6.75;;;17.50;99.90;;;;;;4997510;28;20054;-71
2022/06/10 09:41:55;;;;;;;11.57;5.65;;;17.50;99.90;;;;;;5003755;28;20168;-71
2022/06/10 09:44:35;;;;;;;12.35;5.78;;;17.50;99.90;;;;;;5018287;28;20556;-70
2022/06/10 09:47:27;;;;;;;14.52;6.13;;;17.50;99.90;;;;;;4997159;28;20052;-71
2022/06/10 09:50:25;;;;;;;11.20;5.72;;;17.60;99.90;;;;;;5014788;28;20077;-72
2022/06/10 09:53:14;;;;;;;9.80;5.47;;;17.70;99.90;;;;;;5009471;28;20042;-70
2022/06/10 09:56:22;;;;;;;9.48;5.03;;;17.80;99.90;;;;;;5029980;28;20062;-71
2022/06/10 09:59:04;;;;;;;9.23;5.50;;;17.90;99.90;;;;;;4992656;28;20111;-70
2022/06/10 10:01:29;;;;;;;9.50;5.30;;;18.00;99.90;;;;;;4998125;28;20054;-72
2022/06/10 10:04:04;;;;;;;10.48;5.55;;;18.10;99.90;;;;;;4996176;28;20042;-71
2022/06/10 10:06:37;;;;;;;11.85;5.35;;;18.20;99.90;;;;;;4982434;28;20412;-71
2022/06/10 10:09:40;;;;;;;9.18;5.20;;;18.30;99.90;;;;;;4988759;28;20078;-70
2022/06/10 10:12:14;;;;;;;10.45;4.93;;;18.40;99.90;;;;;;4991298;28;20054;-71
2022/06/10 10:15:14;;;;;;;10.32;4.82;;;18.50;99.90;;;;;;4998142;28;20045;-71
2022/06/10 10:17:55;;;;;;;9.77;5.45;;;18.70;99.90;;;;;;4986362;28;20050;-70
2022/06/10 10:20:28;;;;;;;12.27;5.30;;;18.80;99.90;;;;;;4989467;28;20066;-70
2022/06/10 10:23:21;;;;;;;9.98;4.60;;;18.80;99.90;;;;;;5029204;28;20046;-71
2022/06/10 10:25:48;;;;;;;9.68;5.10;;;18.80;99.90;;;;;;4986742;28;20165;-71
2022/06/10 10:28:28;;;;;;;12.02;4.63;;;18.70;99.90;;;;;;5007489;28;20060;-71
2022/06/10 10:30:56;;;;;;;;;;;18.70;99.90;;;;;;4976966;28;20052;-70
2022/06/10 10:33:22;;;;;;;9.77;5.03;;;18.70;99.90;;;;;;5019254;28;19926;-71
2022/06/10 10:35:52;;;;;;;10.15;4.30;;;18.80;99.90;;;;;;4972678;28;20493;-70
2022/06/10 10:38:33;;;;;;;11.23;4.75;;;18.80;99.90;;;;;;5014338;28;20488;-71
2022/06/10 10:41:00;;;;;;;13.52;4.65;;;18.90;99.90;;;;;;5007372;28;20072;-71
2022/06/10 10:43:31;;;;;;;11.02;4.82;;;19.00;99.90;;;;;;4971373;28;20038;-71
2022/06/10 10:46:25;;;;;;;8.27;3.80;;;19.10;99.90;;;;;;4970984;28;21232;-71
2022/06/10 10:48:51;;;;;;;11.65;4.57;;;19.10;99.90;;;;;;5006743;28;20054;-70
2022/06/10 10:51:21;;;;;;;14.10;5.05;;;19.20;99.90;;;;;;5023168;28;20614;-71
2022/06/10 10:53:51;;;;;;;10.85;4.43;;;19.20;99.90;;;;;;5015808;28;20073;-71
2022/06/10 10:56:18;;;;;;;;;;;19.20;99.90;;;;;;5010572;28;20054;-71
2022/06/10 10:58:48;;;;;;;11.48;4.90;;;19.10;99.90;;;;;;5008829;28;20000;-70
2022/06/10 11:03:59;;;;;;;12.20;4.57;;;19.20;99.90;;;;;;5023635;28;20121;-71
2022/06/10 11:06:32;;;;;;;8.93;5.03;;;19.10;99.90;;;;;;5020031;28;20064;-70
2022/06/10 11:09:15;;;;;;;9.10;3.97;;;19.10;99.90;;;;;;5004022;28;20500;-71
2022/06/10 11:11:42;;;;;;;11.60;4.28;;;19.10;99.90;;;;;;4985502;28;20057;-70
2022/06/10 11:14:31;;;;;;;10.30;4.35;;;19.10;99.90;;;;;;4997822;28;20080;-71
2022/06/10 11:17:09;;;;;;;9.60;3.55;;;19.10;99.90;;;;;;4992125;28;20041;-70
2022/06/10 11:19:35;;;;;;;8.30;3.85;;;19.30;99.90;;;;;;5024030;28;20089;-71
2022/06/10 11:22:01;;;;;;;9.02;4.07;;;19.40;99.90;;;;;;4989908;28;20140;-71
2022/06/10 11:24:33;;;;;;;8.20;4.20;;;19.50;99.90;;;;;;4987726;28;20100;-71
2022/06/10 11:27:02;;;;;;;8.85;4.18;;;19.50;99.90;;;;;;4992976;28;20042;-71
2022/06/10 11:29:29;;;;;;;11.17;4.03;;;19.60;99.90;;;;;;5003745;28;20050;-70
2022/06/10 11:32:04;;;;;;;12.68;4.38;;;19.90;99.90;;;;;;4994189;28;20309;-71
2022/06/10 11:34:36;;;;;;;11.05;3.92;;;20.20;99.90;;;;;;4974551;28;20420;-70
2022/06/10 11:37:38;;;;;;;7.85;3.72;;;20.50;99.90;;;;;;4976646;28;20108;-70
2022/06/10 11:40:34;;;;;;;12.05;4.07;;;20.70;99.90;;;;;;4991540;28;20060;-71
2022/06/10 11:43:13;;;;;;;8.68;3.90;;;20.80;99.90;;;;;;5022723;28;20074;-70
2022/06/10 11:45:53;;;;;;;10.05;4.47;;;20.70;99.90;;;;;;5017453;28;20091;-70
2022/06/10 11:48:28;;;;;;;;;;;20.50;99.90;;;;;;4999385;28;20451;-70
2022/06/10 11:51:04;;;;;;;9.75;4.50;;;20.40;99.90;;;;;;5027023;28;20448;-70
2022/06/10 11:53:47;;;;;;;13.30;4.93;;;20.20;99.90;;;;;;4992192;28;20041;-70
2022/06/10 12:02:15;;;;;;;8.20;3.63;;;20.40;99.90;;;;;;5023673;28;20085;-70
2022/06/10 12:04:52;;;;;;;10.65;4.10;;;20.40;99.90;;;;;;4987007;28;20093;-70
2022/06/10 12:07:22;;;;;;;10.98;4.18;;;20.50;99.90;;;;;;5012380;28;20644;-70
2022/06/10 12:09:51;;;;;;;10.02;4.45;;;20.60;99.90;;;;;;4995681;28;20766;-70
2022/06/10 12:12:20;;;;;;;9.20;4.47;;;20.60;99.90;;;;;;4991759;28;20583;-70
2022/06/10 12:14:55;;;;;;;8.48;4.10;;;20.60;99.90;;;;;;4991171;28;20037;-70
2022/06/10 12:17:32;;;;;;;8.50;4.10;;;20.70;99.90;;;;;;4972940;28;20133;-70
2022/06/10 12:20:08;;;;;;;12.82;4.30;;;20.90;99.90;;;;;;4999788;28;20146;-71
2022/06/10 12:22:34;;;;;;;8.15;3.85;;;20.90;99.90;;;;;;5026771;28;20053;-70
2022/06/10 12:25:00;;;;;;;11.65;3.85;;;21.10;99.90;;;;;;4971951;28;20076;-71
2022/06/10 12:27:40;;;;;;;8.52;4.00;;;21.10;99.90;;;;;;4975015;28;20046;-70
2022/06/10 12:30:14;;;;;;;11.90;4.13;;;21.20;99.90;;;;;;4995101;28;20050;-70
2022/06/10 12:32:45;;;;;;;10.23;4.00;;;21.20;99.90;;;;;;5011219;28;20104;-70
2022/06/10 12:35:23;;;;;;;10.93;3.67;;;21.20;99.90;;;;;;4995734;28;20045;-71
2022/06/10 12:37:54;;;;;;;10.20;3.47;;;21.20;99.90;;;;;;4998375;28;20108;-71
2022/06/10 12:40:25;;;;;;;9.40;3.20;;;21.10;99.90;;;;;;4994685;28;20100;-71
2022/06/10 12:43:12;;;;;;;8.60;2.97;;;21.10;99.90;;;;;;4998595;28;20505;-71
2022/06/10 12:45:44;;;;;;;7.50;3.08;;;21.00;99.90;;;;;;4993724;28;20437;-71
2022/06/10 12:48:20;;;;;;;9.45;3.05;;;21.00;99.90;;;;;;5018007;28;20070;-71
2022/06/10 12:50:58;;;;;;;9.65;3.70;;;21.00;99.90;;;;;;4996518;28;20062;-70
2022/06/10 12:53:35;;;;;;;9.07;3.80;;;21.20;99.90;;;;;;5012528;28;20046;-71
2022/06/10 12:56:23;;;;;;;11.65;3.28;;;21.30;99.90;;;;;;4994643;28;20053;-71
2022/06/10 12:59:04;;;;;;;7.47;3.58;;;21.30;99.90;;;;;;5020539;28;20073;-71
2022/06/10 13:01:30;;;;;;;11.50;3.88;;;21.40;99.90;;;;;;5009066;28;20050;-73
2022/06/10 13:04:20;;;;;;;10.45;4.00;;;21.40;99.90;;;;;;5014405;28;20037;-71
2022/06/10 13:07:27;;;;;;;11.40;3.42;;;21.40;99.90;;;;;;4990422;28;20046;-71
2022/06/10 13:09:52;;;;;;;9.30;3.75;;;21.40;99.90;;;;;;4989875;28;20042;-72
2022/06/10 13:12:35;;;;;;;9.18;3.10;;;21.30;99.90;;;;;;5000419;28;20646;-71
2022/06/10 13:15:26;;;;;;;11.98;3.95;;;21.20;99.90;;;;;;4998079;28;20302;-72
2022/06/10 13:17:55;;;;;;;9.38;3.72;;;21.10;99.90;;;;;;4998152;28;20046;-70
2022/06/10 13:20:23;;;;;;;10.32;3.65;;;21.20;99.90;;;;;;5010071;28;20045;-71
2022/06/10 13:23:12;;;;;;;8.05;3.60;;;21.30;99.90;;;;;;4997616;28;20057;-71
2022/06/10 13:25:39;;;;;;;9.93;3.92;;;21.40;99.90;;;;;;5002502;28;20050;-73
2022/06/10 13:28:25;;;;;;;10.48;3.80;;;21.40;99.90;;;;;;5012691;28;20054;-73
2022/06/10 13:31:02;;;;;;;6.32;3.38;;;21.60;99.90;;;;;;5006614;28;20050;-73
2022/06/10 13:33:30;;;;;;;10.60;4.22;;;22.00;99.90;;;;;;5002427;28;20400;-73